Time;durP1;ratioP1;P1;durP2;ratioP2;P2;SDS_P1;SDS_P2;PMS_P1;PMS_P2;Temp;Humidity;BMP_temperature;BMP_pressure;BME280_temperature;BME280_humidity;BME280_pressure;Samples;Min_cycle;Max_cycle;Signal;HPM_P1;HPM_P2
2023/04/05 00:02:00;;;;;;;4.40;4.20;;;;;;;6.78;79.29;98832.84;5071697;28;20196;-69
2023/04/05 00:04:27;;;;;;;4.70;4.50;;;;;;;6.85;79.02;98831.91;5071883;28;20589;-68
2023/04/05 00:06:54;;;;;;;4.73;4.47;;;;;;;6.85;78.69;98834.53;5071753;28;20637;-68
2023/04/05 00:09:21;;;;;;;4.30;4.10;;;;;;;6.86;78.25;98830.09;5057276;28;20193;-69
2023/04/05 00:11:48;;;;;;;4.70;4.50;;;;;;;6.91;79.22;98838.25;5051946;28;20201;-69
2023/04/05 00:14:15;;;;;;;4.60;4.40;;;;;;;6.81;79.15;98829.84;5051741;28;20193;-69
2023/04/05 00:16:42;;;;;;;4.53;4.33;;;;;;;6.81;79.46;98827.22;5051931;28;20258;-69
2023/04/05 00:19:11;;;;;;;5.10;4.80;;;;;;;6.76;79.67;98834.84;5052980;28;20192;-69
2023/04/05 00:21:39;;;;;;;4.73;4.53;;;;;;;6.82;79.08;98829.63;5051870;28;20200;-69
2023/04/05 00:24:06;;;;;;;4.70;4.50;;;;;;;6.85;79.29;98833.72;5051730;28;20283;-69
2023/04/05 00:26:33;;;;;;;4.80;4.60;;;;;;;6.81;79.46;98838.56;5066689;28;20197;-69
2023/04/05 00:29:00;;;;;;;5.20;4.90;;;;;;;6.71;79.40;98837.25;5070499;28;20259;-70
2023/04/05 00:31:27;;;;;;;4.93;4.67;;;;;;;6.73;79.74;98835.25;5070850;28;20738;-69
2023/04/05 00:33:53;;;;;;;4.60;4.37;;;;;;;6.70;80.19;98840.88;5071322;28;20187;-69
2023/04/05 00:36:21;;;;;;;5.10;4.80;;;;;;;6.65;80.54;98832.72;5071346;28;20674;-70
2023/04/05 00:38:49;;;;;;;4.97;4.70;;;;;;;6.68;80.50;98830.53;5062873;28;20636;-70
2023/04/05 00:41:16;;;;;;;6.10;5.70;;;;;;;6.69;80.34;98831.34;5051440;28;20205;-70
2023/04/05 00:43:43;;;;;;;5.60;5.10;;;;;;;6.64;80.19;98841.63;5051392;28;20251;-71
2023/04/05 00:46:09;;;;;;;5.60;5.27;;;;;;;6.57;79.41;98838.13;5058001;28;20265;-70
2023/04/05 00:48:37;;;;;;;5.97;5.67;;;;;;;6.60;79.50;98837.72;5074981;28;20201;-70
2023/04/05 00:51:08;;;;;;;5.40;5.10;;;;;;;6.56;79.62;98834.66;5075405;28;20255;-70
2023/04/05 00:53:36;;;;;;;5.40;5.00;;;;;;;6.52;79.67;98829.91;5075697;28;20269;-70
2023/04/05 00:56:03;;;;;;;5.20;5.00;;;;;;;6.57;79.52;98835.47;5072438;28;20195;-70
2023/04/05 00:58:30;;;;;;;5.23;4.83;;;;;;;6.46;79.92;98833.31;5055239;28;20220;-70
2023/04/05 01:01:04;;;;;;;5.63;5.23;;;;;;;6.50;80.04;98839.84;5055491;28;20200;-70
2023/04/05 01:03:33;;;;;;;5.23;4.93;;;;;;;6.43;79.80;98834.50;5055342;28;20185;-69
2023/04/05 01:06:16;;;;;;;5.03;4.63;;;;;;;6.43;80.01;98839.78;5054902;28;20192;-70
2023/04/05 01:08:55;;;;;;;5.93;5.53;;;;;;;6.48;80.21;98836.56;5066656;28;20267;-69
2023/04/05 01:11:25;;;;;;;6.03;5.73;;;;;;;6.56;79.50;98847.84;5073403;28;20188;-69
2023/04/05 01:13:58;;;;;;;5.83;5.43;;;;;;;6.56;79.22;98841.72;5068695;28;20200;-70
2023/04/05 01:16:25;;;;;;;5.50;5.20;;;;;;;6.59;79.42;98849.28;5055067;28;20631;-70
2023/04/05 01:18:55;;;;;;;5.60;5.30;;;;;;;6.50;79.66;98834.56;5054983;28;20217;-71
2023/04/05 01:22:12;;;;;;;5.70;5.40;;;;;;;6.42;79.56;98832.06;5054529;28;20194;-70
2023/04/05 01:24:51;;;;;;;5.47;5.17;;;;;;;6.55;80.19;98837.47;5066053;28;20188;-70
2023/04/05 01:27:29;;;;;;;9.27;5.57;;;;;;;6.52;79.96;98846.56;5074364;28;20586;-69
2023/04/05 01:30:04;;;;;;;5.73;4.83;;;;;;;6.58;79.65;98850.28;5074896;28;20185;-70
2023/04/05 01:32:42;;;;;;;5.57;5.17;;;;;;;6.30;80.24;98854.63;5074790;28;20270;-70
2023/04/05 01:35:21;;;;;;;4.73;4.47;;;;;;;6.32;79.36;98837.63;5072921;28;20241;-71
2023/04/05 01:37:52;;;;;;;6.37;5.73;;;;;;;6.43;80.26;98855.63;5074651;28;20217;-71
2023/04/05 01:40:20;;;;;;;5.60;5.30;;;;;;;6.30;80.17;98849.34;5074141;28;20192;-70
2023/04/05 01:42:46;;;;;;;5.47;5.17;;;;;;;6.27;80.57;98849.72;5064263;28;20196;-70
2023/04/05 01:45:14;;;;;;;5.37;5.07;;;;;;;6.24;80.51;98855.38;5054080;28;20662;-70
2023/04/05 01:47:41;;;;;;;6.03;5.70;;;;;;;6.28;80.42;98861.91;5054449;28;20192;-70
2023/04/05 01:50:09;;;;;;;6.43;6.13;;;;;;;6.34;80.67;98861.16;5054007;28;20196;-71
2023/04/05 01:52:36;;;;;;;5.30;5.00;;;;;;;6.09;81.38;98851.94;5062129;28;20207;-71
2023/04/05 01:55:03;;;;;;;5.60;5.30;;;;;;;6.01;81.24;98854.66;5073740;28;20192;-70
2023/04/05 01:57:29;;;;;;;6.70;6.30;;;;;;;5.91;81.57;98838.31;5073833;28;20696;-70
2023/04/05 01:59:56;;;;;;;5.83;5.53;;;;;;;6.16;81.50;98866.81;5074094;28;20253;-69
2023/04/05 02:02:24;;;;;;;5.70;5.30;;;;;;;6.15;81.56;98872.28;5072841;28;20189;-70
2023/04/05 02:04:51;;;;;;;5.77;5.43;;;;;;;6.11;81.10;98863.09;5073713;28;20192;-71
2023/04/05 02:07:18;;;;;;;5.83;5.50;;;;;;;6.07;81.32;98878.47;5074290;28;20206;-71
2023/04/05 02:09:44;;;;;;;6.80;6.30;;;;;;;5.98;81.30;98868.19;5074049;28;20192;-71
2023/04/05 02:12:11;;;;;;;6.60;5.67;;;;;;;6.10;81.20;98879.91;5069120;28;20184;-71
2023/04/05 02:14:37;;;;;;;5.43;5.23;;;;;;;6.07;81.49;98875.84;5053927;28;20196;-69
2023/04/05 02:17:04;;;;;;;5.40;5.20;;;;;;;6.06;81.42;98873.38;5053474;28;20196;-69
2023/04/05 02:19:39;;;;;;;5.87;5.57;;;;;;;6.03;81.21;98874.56;5067183;28;20227;-69
2023/04/05 02:22:06;;;;;;;5.97;5.57;;;;;;;6.06;80.80;98881.28;5073766;28;20188;-69
2023/04/05 02:24:33;;;;;;;5.83;5.53;;;;;;;6.06;80.59;98879.47;5073386;28;20661;-70
2023/04/05 02:27:00;;;;;;;6.27;5.97;;;;;;;5.99;80.92;98883.00;5073592;28;20192;-69
2023/04/05 02:29:26;;;;;;;6.57;6.17;;;;;;;5.96;81.76;98883.38;5072971;28;20216;-70
2023/04/05 02:31:53;;;;;;;6.60;6.20;;;;;;;5.97;81.42;98892.94;5073449;28;20196;-69
2023/04/05 02:34:21;;;;;;;5.77;5.47;;;;;;;5.89;81.91;98893.84;5073484;28;20187;-70
2023/04/05 02:36:49;;;;;;;6.10;5.80;;;;;;;5.91;81.58;98896.31;5073415;28;20219;-69
2023/04/05 02:39:16;;;;;;;5.93;5.63;;;;;;;5.94;81.49;98896.75;5064616;28;20220;-70
2023/04/05 02:41:43;;;;;;;7.13;6.73;;;;;;;6.00;81.16;98895.19;5052993;28;20564;-69
2023/04/05 02:44:10;;;;;;;6.00;5.17;;;;;;;5.98;80.71;98897.19;5053016;28;20728;-69
2023/04/05 02:46:37;;;;;;;6.80;6.33;;;;;;;5.95;80.88;98898.38;5053070;28;20196;-70
2023/04/05 02:49:03;;;;;;;6.00;5.70;;;;;;;5.85;80.70;98902.28;5071934;28;20199;-70
2023/04/05 02:51:33;;;;;;;6.33;5.73;;;;;;;5.88;80.75;98907.19;5073024;28;20253;-70
2023/04/05 02:54:01;;;;;;;6.53;6.20;;;;;;;5.92;80.88;98905.84;5066880;28;20188;-70
2023/04/05 02:56:29;;;;;;;6.93;6.43;;;;;;;5.96;80.46;98909.75;5052673;28;20200;-69
2023/04/05 02:58:55;;;;;;;6.73;6.43;;;;;;;5.92;80.61;98909.28;5052963;28;20697;-70
2023/04/05 03:01:22;;;;;;;7.03;6.63;;;;;;;5.81;80.63;98911.53;5052920;28;20193;-70
2023/04/05 03:03:49;;;;;;;6.30;5.63;;;;;;;5.81;80.26;98906.25;5055264;28;20228;-69
2023/04/05 03:06:16;;;;;;;6.57;6.17;;;;;;;5.85;81.15;98910.19;5072777;28;20253;-69
2023/04/05 03:08:45;;;;;;;7.60;6.17;;;;;;;5.88;80.63;98909.84;5071926;28;20253;-68
2023/04/05 03:11:13;;;;;;;6.70;6.20;;;;;;;5.83;80.34;98913.00;5072285;28;20192;-70
2023/04/05 03:13:40;;;;;;;6.60;6.20;;;;;;;5.85;80.56;98907.53;5070471;28;20656;-69
2023/04/05 03:16:07;;;;;;;6.37;6.03;;;;;;;5.84;80.78;98917.25;5052410;28;20624;-69
2023/04/05 03:18:34;;;;;;;6.33;5.93;;;;;;;5.81;80.77;98912.38;5052598;28;20274;-70
2023/04/05 03:21:00;;;;;;;6.70;6.30;;;;;;;5.51;80.70;98874.59;5052609;28;20200;-69
2023/04/05 03:23:29;;;;;;;7.07;6.67;;;;;;;5.90;80.79;98921.81;5065158;28;20309;-70
2023/04/05 03:25:59;;;;;;;7.43;6.93;;;;;;;5.86;81.04;98919.72;5072063;28;20234;-70
2023/04/05 03:28:27;;;;;;;7.13;6.60;;;;;;;5.86;80.97;98917.06;5072487;28;20746;-69
2023/04/05 03:30:54;;;;;;;8.47;6.17;;;;;;;5.86;80.64;98919.72;5072421;28;20257;-69
2023/04/05 03:33:21;;;;;;;7.63;7.17;;;;;;;5.80;80.50;98918.56;5070631;28;20241;-69
2023/04/05 03:35:48;;;;;;;6.83;6.40;;;;;;;5.88;80.41;98915.91;5071998;28;20249;-69
2023/04/05 03:38:15;;;;;;;6.63;6.23;;;;;;;5.93;80.13;98920.63;5072054;28;20220;-70
2023/04/05 03:40:42;;;;;;;7.10;6.60;;;;;;;5.85;80.12;98923.34;5068345;28;20250;-70
2023/04/05 03:43:09;;;;;;;6.63;6.33;;;;;;;5.87;80.07;98926.66;5052789;28;20196;-70
2023/04/05 03:45:37;;;;;;;6.90;6.57;;;;;;;5.83;80.56;98920.09;5052078;28;20284;-70
2023/04/05 03:48:05;;;;;;;6.87;6.37;;;;;;;5.86;80.29;98925.81;5051931;28;20266;-70
2023/04/05 03:50:31;;;;;;;8.27;7.47;;;;;;;5.82;80.31;98934.25;5063770;28;20196;-70
2023/04/05 03:52:58;;;;;;;7.03;6.53;;;;;;;5.97;79.63;98932.47;5070525;28;20188;-70
2023/04/05 03:55:25;;;;;;;7.03;6.63;;;;;;;5.91;79.57;98933.19;5072100;28;20638;-71
2023/04/05 03:57:52;;;;;;;7.10;6.50;;;;;;;5.98;79.63;98926.19;5071804;28;20253;-72
2023/04/05 04:00:19;;;;;;;6.80;6.40;;;;;;;5.97;79.51;98935.09;5071678;28;20200;-71
2023/04/05 04:02:48;;;;;;;6.80;6.40;;;;;;;6.01;80.02;98933.75;5060520;28;20196;-70
2023/04/05 04:05:16;;;;;;;6.80;6.37;;;;;;;6.07;79.56;98939.09;5051497;28;20193;-71
2023/04/05 04:07:44;;;;;;;7.90;7.30;;;;;;;6.04;79.31;98938.66;5051853;28;20258;-71
2023/04/05 04:10:13;;;;;;;6.53;6.07;;;;;;;5.92;79.36;98940.09;5051133;28;20258;-70
2023/04/05 04:12:40;;;;;;;7.70;7.20;;;;;;;6.08;79.57;98945.19;5060447;28;20204;-69
2023/04/05 04:15:08;;;;;;;7.47;6.87;;;;;;;6.11;79.27;98944.81;5071456;28;20625;-69
2023/04/05 04:17:36;;;;;;;6.63;6.23;;;;;;;6.14;79.18;98949.75;5071340;28;20249;-68
2023/04/05 04:20:09;;;;;;;18.97;7.20;;;;;;;6.29;79.36;98963.75;5074781;28;20767;-68
2023/04/05 04:22:37;;;;;;;6.97;6.47;;;;;;;6.60;79.69;98953.81;5069213;28;20194;-69
2023/04/05 04:25:08;;;;;;;8.43;7.83;;;;;;;7.10;77.62;98964.38;5058138;28;20676;-71
2023/04/05 04:27:35;;;;;;;7.87;7.30;;;;;;;7.56;74.63;98982.31;5075087;28;20597;-70
2023/04/05 04:30:03;;;;;;;6.90;6.43;;;;;;;7.59;73.38;98976.66;5075243;28;20198;-70
2023/04/05 04:35:13;;;;;;;6.73;6.33;;;;;;;7.43;74.08;98981.38;5075447;28;20212;-68
2023/04/05 04:37:45;;;;;;;6.30;5.90;;;;;;;7.26;73.69;98985.28;5075541;28;20326;-70
2023/04/05 04:40:15;;;;;;;5.67;5.27;;;;;;;6.96;74.34;98981.88;5075114;28;20218;-69
2023/04/05 04:42:45;;;;;;;6.60;6.20;;;;;;;6.78;75.72;98980.66;5070740;28;20571;-69
2023/04/05 04:45:14;;;;;;;7.33;6.90;;;;;;;6.57;75.16;98993.78;5054983;28;20739;-70
2023/04/05 04:47:42;;;;;;;6.73;6.33;;;;;;;6.43;75.57;98986.66;5055791;28;20196;-70
2023/04/05 04:50:10;;;;;;;6.97;6.40;;;;;;;6.51;76.40;98989.22;5054950;28;20200;-69
2023/04/05 04:52:38;;;;;;;5.80;5.50;;;;;;;6.46;76.01;98991.59;5071819;28;20198;-69
2023/04/05 04:55:06;;;;;;;5.90;5.50;;;;;;;6.44;76.23;98996.22;5056904;28;20204;-71
2023/04/05 04:57:33;;;;;;;7.90;7.23;;;;;;;6.25;76.18;98978.31;5074363;28;20192;-69
2023/04/05 04:59:59;;;;;;;6.97;6.47;;;;;;;6.46;75.34;99005.59;5074279;28;20710;-71
2023/04/05 05:02:27;;;;;;;6.20;5.80;;;;;;;6.53;74.72;98993.31;5073049;28;20220;-70
2023/04/05 05:04:54;;;;;;;5.00;4.80;;;;;;;7.09;72.88;98999.69;5073556;28;20797;-69
2023/04/05 05:07:21;;;;;;;5.90;5.33;;;;;;;7.65;71.16;99014.72;5072971;28;20208;-69
2023/04/05 05:09:51;;;;;;;6.13;5.63;;;;;;;8.17;69.48;99012.53;5072408;28;20191;-73
2023/04/05 05:12:21;;;;;;;5.43;5.03;;;;;;;8.69;73.68;99007.59;5072039;28;20249;-82
2023/04/05 05:14:47;;;;;;;5.33;5.03;;;;;;;8.55;68.77;99027.88;5073917;28;20691;-71
2023/04/05 05:17:14;;;;;;;4.93;4.63;;;;;;;8.01;68.76;99028.69;5073681;28;20250;-71
2023/04/05 05:19:41;;;;;;;8.77;7.97;;;;;;;7.64;69.01;99021.03;5073825;28;20223;-71
2023/04/05 05:22:08;;;;;;;7.27;6.87;;;;;;;7.29;70.29;99021.84;5072686;28;20192;-72
2023/04/05 05:24:35;;;;;;;5.43;5.13;;;;;;;7.20;72.20;99017.69;5073656;28;20685;-71
2023/04/05 05:27:04;;;;;;;6.17;5.73;;;;;;;7.27;71.85;99023.88;5073431;28;20235;-71
2023/04/05 05:29:31;;;;;;;5.20;4.93;;;;;;;7.27;71.43;99029.16;5073452;28;20191;-71
2023/04/05 05:31:58;;;;;;;6.67;6.17;;;;;;;7.15;71.74;99025.38;5072417;28;20192;-70
2023/04/05 05:34:25;;;;;;;5.80;5.50;;;;;;;7.22;71.85;99021.78;5072801;28;20208;-69
2023/04/05 05:36:52;;;;;;;7.23;6.40;;;;;;;7.27;72.07;99024.69;5073845;28;20187;-70
2023/04/05 05:39:19;;;;;;;6.17;5.73;;;;;;;7.14;71.95;99024.53;5072647;28;20217;-71
2023/04/05 05:41:46;;;;;;;5.27;4.87;;;;;;;6.94;72.47;99018.19;5073093;28;20199;-70
2023/04/05 05:44:14;;;;;;;7.50;6.70;;;;;;;7.02;72.61;99026.00;5072187;28;20197;-70
2023/04/05 05:46:41;;;;;;;8.23;7.53;;;;;;;7.08;72.17;99024.47;5072586;28;20288;-67
2023/04/05 05:49:07;;;;;;;9.57;6.70;;;;;;;7.03;72.46;99024.19;5072008;28;20192;-70
2023/04/05 05:51:34;;;;;;;5.70;5.33;;;;;;;6.95;72.47;99026.94;5072712;28;20196;-71
2023/04/05 05:54:01;;;;;;;7.13;6.53;;;;;;;6.95;72.71;99026.94;5073234;28;20555;-71
2023/04/05 05:56:28;;;;;;;6.27;5.87;;;;;;;6.95;73.14;99026.94;5073132;28;20197;-69
2023/04/05 05:58:55;;;;;;;7.47;6.00;;;;;;;6.97;72.96;99019.66;5071301;28;20301;-71
2023/04/05 06:01:26;;;;;;;5.57;5.10;;;;;;;6.89;71.98;99017.09;5072982;28;20284;-72
2023/04/05 06:03:53;;;;;;;5.30;4.83;;;;;;;6.92;71.68;99020.22;5072802;28;20196;-71
2023/04/05 06:06:20;;;;;;;5.80;5.30;;;;;;;6.97;71.36;99022.28;5073216;28;20259;-74
2023/04/05 06:08:50;;;;;;;4.80;4.40;;;;;;;6.98;71.15;99023.94;5069422;28;20206;-73
2023/04/05 06:11:17;;;;;;;5.47;5.07;;;;;;;6.94;71.53;99020.84;5072785;28;20200;-71
2023/04/05 06:13:44;;;;;;;6.27;5.77;;;;;;;6.90;71.40;99016.13;5073025;28;20245;-76
2023/04/05 06:16:11;;;;;;;6.80;6.20;;;;;;;6.90;71.28;99032.75;5072102;28;20263;-75
2023/04/05 06:18:39;;;;;;;5.03;4.73;;;;;;;6.88;72.01;99023.41;5071002;28;20199;-75
2023/04/05 06:21:06;;;;;;;5.23;4.83;;;;;;;7.07;71.88;99036.84;5072583;28;20197;-76
2023/04/05 06:23:33;;;;;;;5.10;4.80;;;;;;;7.27;71.85;99040.53;5073476;28;20198;-78
2023/04/05 06:26:00;;;;;;;4.87;4.40;;;;;;;7.32;69.58;99053.19;5072719;28;20199;-79
2023/04/05 06:28:26;;;;;;;4.87;4.57;;;;;;;7.18;70.15;99043.50;5071627;28;20752;-75
2023/04/05 06:30:54;;;;;;;7.53;6.57;;;;;;;7.23;70.06;99044.53;5065874;28;20201;-73
2023/04/05 06:33:20;;;;;;;5.73;5.23;;;;;;;7.15;69.70;99046.50;5067404;28;20280;-72
2023/04/05 06:35:48;;;;;;;6.57;5.40;;;;;;;7.17;70.58;99041.84;5062777;28;20197;-72
2023/04/05 06:38:15;;;;;;;4.90;4.60;;;;;;;7.28;70.56;99057.22;5072584;28;20199;-71
2023/04/05 06:40:42;;;;;;;4.53;4.03;;;;;;;7.23;69.58;99054.31;5055913;28;20278;-74
2023/04/05 06:43:09;;;;;;;5.93;5.23;;;;;;;7.42;69.57;99058.97;5069496;28;20190;-71
2023/04/05 06:45:36;;;;;;;5.10;4.60;;;;;;;7.42;69.25;99058.97;5072112;28;20283;-74
2023/04/05 06:48:03;;;;;;;4.23;3.90;;;;;;;7.54;67.99;99068.06;5071653;28;20192;-72
2023/04/05 06:50:30;;;;;;;5.00;4.60;;;;;;;7.49;68.50;99066.00;5072083;28;20195;-72
2023/04/05 06:52:58;;;;;;;4.73;4.43;;;;;;;7.46;69.33;99060.25;5070331;28;20187;-72
2023/04/05 06:55:25;;;;;;;6.33;4.83;;;;;;;7.52;68.94;99072.72;5061299;28;20750;-72
2023/04/05 06:57:51;;;;;;;4.93;4.63;;;;;;;7.53;69.29;99069.06;5069068;28;20327;-72
2023/04/05 07:00:19;;;;;;;6.40;5.10;;;;;;;7.57;68.60;99078.25;5070534;28;20700;-72
2023/04/05 07:02:46;;;;;;;4.90;4.60;;;;;;;7.69;68.97;99079.41;5071278;28;20661;-72
2023/04/05 07:05:13;;;;;;;6.80;4.50;;;;;;;7.71;68.21;99080.03;5065061;28;20736;-72
2023/04/05 07:07:41;;;;;;;4.23;4.03;;;;;;;7.43;68.38;99092.34;5066513;28;20691;-72
2023/04/05 07:10:10;;;;;;;4.77;4.47;;;;;;;7.43;68.81;99087.88;5070910;28;20192;-73
2023/04/05 07:12:37;;;;;;;4.03;3.77;;;;;;;7.38;69.20;99084.13;5071577;28;20191;-71
2023/04/05 07:15:05;;;;;;;4.37;3.97;;;;;;;7.51;68.70;99095.69;5069581;28;20329;-72
2023/04/05 07:17:31;;;;;;;3.70;3.50;;;;;;;7.38;67.99;99099.97;5054308;28;20239;-70
2023/04/05 07:19:58;;;;;;;4.40;4.10;;;;;;;7.40;68.10;99098.81;5051784;28;20229;-70
2023/04/05 07:22:25;;;;;;;4.50;4.07;;;;;;;7.35;68.03;99100.38;5062227;28;20200;-71
2023/04/05 07:24:52;;;;;;;3.83;3.57;;;;;;;7.37;67.74;99101.00;5071414;28;20229;-73
2023/04/05 07:27:20;;;;;;;4.30;3.97;;;;;;;7.37;69.27;99103.63;5070576;28;20226;-75
2023/04/05 07:29:47;;;;;;;5.13;4.20;;;;;;;7.53;68.33;99095.50;5071185;28;20627;-72
2023/04/05 07:32:13;;;;;;;4.30;3.83;;;;;;;7.61;68.64;99096.22;5060255;28;20214;-73
2023/04/05 07:34:41;;;;;;;4.00;3.80;;;;;;;7.57;68.18;99109.97;5062874;28;20666;-72
2023/04/05 07:37:07;;;;;;;24.07;6.00;;;;;;;7.75;68.87;99100.63;5060462;28;20756;-71
2023/04/05 07:39:34;;;;;;;4.80;3.83;;;;;;;7.76;68.10;99104.91;5062883;28;20212;-70
2023/04/05 07:42:01;;;;;;;5.20;4.27;;;;;;;7.83;66.54;99115.53;5057707;28;20669;-73
2023/04/05 07:44:29;;;;;;;4.17;3.83;;;;;;;7.88;66.92;99113.97;5071978;28;20195;-71
2023/04/05 07:46:56;;;;;;;4.73;3.90;;;;;;;7.97;66.30;99117.31;5054194;28;20249;-74
2023/04/05 07:49:26;;;;;;;3.30;3.20;;;;;;;8.03;66.63;99121.84;5066539;28;20637;-72
2023/04/05 07:51:55;;;;;;;4.73;4.30;;;;;;;8.14;66.60;99114.25;5070647;28;20307;-70
2023/04/05 07:54:22;;;;;;;3.87;3.57;;;;;;;8.13;65.84;99123.16;5069784;28;20668;-72
2023/04/05 07:56:49;;;;;;;4.10;3.90;;;;;;;8.16;65.06;99127.25;5070349;28;20667;-68
2023/04/05 07:59:16;;;;;;;3.30;3.17;;;;;;;8.16;65.46;99128.09;5070384;28;20644;-71
2023/04/05 08:01:44;;;;;;;5.00;4.33;;;;;;;8.33;66.48;99139.28;5064762;28;20283;-72
2023/04/05 08:04:11;;;;;;;4.37;3.83;;;;;;;8.58;66.01;99135.22;5071433;28;20695;-69
2023/04/05 08:06:38;;;;;;;3.30;3.00;;;;;;;8.76;63.77;99135.53;5071220;28;20197;-71
2023/04/05 08:09:07;;;;;;;3.50;2.90;;;;;;;8.94;63.90;99133.22;5068938;28;20184;-70
2023/04/05 08:11:33;;;;;;;3.80;3.57;;;;;;;9.15;62.60;99146.41;5051868;28;20200;-71
2023/04/05 08:14:00;;;;;;;3.33;3.10;;;;;;;9.29;61.94;99143.63;5070816;28;20252;-70
2023/04/05 08:16:27;;;;;;;2.83;2.63;;;;;;;9.36;61.21;99152.41;5071263;28;20191;-71
2023/04/05 08:18:55;;;;;;;24.67;3.93;;;;;;;9.56;60.76;99152.50;5071510;28;20192;-68
2023/04/05 08:21:22;;;;;;;3.50;3.07;;;;;;;9.42;61.12;99153.44;5068921;28;20223;-72
2023/04/05 08:23:50;;;;;;;8.40;2.83;;;;;;;9.57;61.03;99157.63;5064823;28;20265;-72
2023/04/05 08:26:17;;;;;;;2.87;2.60;;;;;;;9.80;61.25;99154.66;5065042;28;20366;-74
2023/04/05 08:28:44;;;;;;;3.27;2.87;;;;;;;9.88;60.88;99159.75;5070436;28;20227;-72
2023/04/05 08:31:11;;;;;;;12.07;3.30;;;;;;;9.89;58.94;99151.59;5069261;28;20269;-73
2023/04/05 08:33:37;;;;;;;2.80;2.60;;;;;;;9.88;59.71;99170.34;5067893;28;20192;-72
2023/04/05 08:36:06;;;;;;;2.50;2.40;;;;;;;10.01;59.44;99170.41;5051988;28;20242;-70
2023/04/05 08:38:33;;;;;;;5.00;3.40;;;;;;;10.27;58.17;99171.31;5067644;28;20245;-72
2023/04/05 08:41:08;;;;;;;2.67;2.57;;;;;;;10.20;57.50;99169.66;5050359;28;20644;-71
2023/04/05 08:43:47;;;;;;;3.00;2.80;;;;;;;10.16;58.68;99173.72;5067252;28;20270;-70
2023/04/05 08:46:16;;;;;;;12.70;3.93;;;;;;;9.88;59.64;99173.00;5058185;28;20635;-69
2023/04/05 08:48:43;;;;;;;4.03;3.00;;;;;;;9.79;58.96;99176.84;5067278;28;20199;-70
2023/04/05 08:51:11;;;;;;;3.03;2.83;;;;;;;9.47;58.08;99177.53;5050306;28;20238;-72
2023/04/05 08:53:38;;;;;;;3.60;3.40;;;;;;;9.51;60.39;99176.94;5066496;28;20192;-71
2023/04/05 08:56:06;;;;;;;8.57;5.70;;;;;;;9.55;60.42;99167.59;5071088;28;20188;-71
2023/04/05 08:58:37;;;;;;;5.93;3.13;;;;;;;9.79;60.19;99179.50;5068109;28;20210;-70
2023/04/05 09:01:05;;;;;;;11.60;3.13;;;;;;;9.87;58.68;99189.94;5049945;28;20713;-72
2023/04/05 09:03:37;;;;;;;4.53;3.40;;;;;;;9.83;59.07;99186.06;5065217;28;20192;-71
2023/04/05 09:06:07;;;;;;;2.60;2.50;;;;;;;9.83;57.98;99162.19;5071709;28;20329;-70
2023/04/05 09:08:35;;;;;;;3.37;2.40;;;;;;;9.75;58.64;99191.53;5060120;28;20185;-74
2023/04/05 09:11:02;;;;;;;4.13;2.10;;;;;;;9.79;58.15;99187.47;5063475;28;20192;-72
2023/04/05 09:13:29;;;;;;;3.87;3.17;;;;;;;9.85;59.00;99186.69;5064570;28;20188;-72
2023/04/05 09:15:56;;;;;;;6.73;4.10;;;;;;;9.80;57.91;99194.44;5067724;28;20200;-73
2023/04/05 09:18:23;;;;;;;2.83;2.30;;;;;;;9.38;57.80;99186.66;5073532;28;20207;-72
2023/04/05 09:20:50;;;;;;;3.03;2.93;;;;;;;9.69;57.84;99193.13;5065152;28;20266;-70
2023/04/05 09:23:16;;;;;;;3.53;3.33;;;;;;;9.70;58.02;99189.50;5069465;28;20260;-69
2023/04/05 09:25:46;;;;;;;3.03;2.83;;;;;;;9.58;58.66;99190.25;5067445;28;20250;-69
2023/04/05 09:28:13;;;;;;;2.47;2.37;;;;;;;9.55;58.56;99195.94;5064942;28;20223;-71
2023/04/05 09:30:46;;;;;;;5.80;1.90;;;;;;;9.07;57.89;99162.44;5072355;28;20196;-70
2023/04/05 09:33:19;;;;;;;2.40;2.13;;;;;;;9.56;58.50;99197.59;5062095;28;20243;-72
2023/04/05 09:35:50;;;;;;;2.13;2.03;;;;;;;9.51;58.57;99194.69;5053872;28;20188;-71
2023/04/05 09:38:16;;;;;;;7.90;2.40;;;;;;;9.70;58.94;99193.97;5064623;28;20184;-67
2023/04/05 09:40:46;;;;;;;6.17;3.23;;;;;;;9.60;57.90;99189.03;5064052;28;20219;-72
2023/04/05 09:43:14;;;;;;;2.20;1.97;;;;;;;9.51;57.66;99199.97;5066465;28;20258;-75
2023/04/05 09:45:44;;;;;;;2.97;2.37;;;;;;;9.48;58.33;99187.16;5052596;28;20627;-73
2023/04/05 09:48:12;;;;;;;5.43;2.77;;;;;;;9.82;58.26;99195.88;5062733;28;20199;-76
2023/04/05 09:50:39;;;;;;;3.80;3.53;;;;;;;9.91;58.32;99191.19;5073337;28;20226;-73
2023/04/05 09:53:08;;;;;;;3.27;3.07;;;;;;;9.88;57.85;99203.03;5073346;28;20686;-72
2023/04/05 09:55:35;;;;;;;2.90;2.77;;;;;;;9.59;58.55;99197.16;5073457;28;20229;-74
2023/04/05 09:58:03;;;;;;;2.53;2.43;;;;;;;9.37;58.72;99190.34;5073675;28;20192;-73
2023/04/05 10:00:31;;;;;;;7.80;3.00;;;;;;;9.38;59.73;99194.63;5073123;28;20216;-72
2023/04/05 10:02:57;;;;;;;2.50;2.40;;;;;;;9.25;60.51;99189.25;5072137;28;20192;-74
2023/04/05 10:05:26;;;;;;;2.10;2.00;;;;;;;9.27;59.56;99195.19;5072330;28;20727;-72
2023/04/05 10:07:54;;;;;;;4.43;3.30;;;;;;;9.32;60.16;99188.25;5073158;28;20241;-74
2023/04/05 10:10:22;;;;;;;3.67;3.07;;;;;;;9.08;60.00;99188.75;5073343;28;20200;-74
2023/04/05 10:12:50;;;;;;;4.83;3.70;;;;;;;8.96;60.63;99186.81;5072423;28;20618;-76
2023/04/05 10:15:19;;;;;;;5.30;2.73;;;;;;;8.95;61.33;99188.63;5073129;28;20196;-75
2023/04/05 10:17:50;;;;;;;4.00;3.70;;;;;;;9.01;61.72;99198.47;5071857;28;20567;-77
2023/04/05 10:20:18;;;;;;;7.13;6.30;;;;;;;9.19;62.05;99180.25;5072742;28;20250;-71
2023/04/05 10:22:59;;;;;;;5.13;4.33;;;;;;;9.47;61.01;99198.75;5071850;28;20615;-72
2023/04/05 10:25:40;;;;;;;3.80;3.53;;;;;;;9.60;61.66;99185.56;5071830;28;20184;-76
2023/04/05 10:28:11;;;;;;;2.57;2.37;;;;;;;9.47;59.85;99181.00;5068622;28;20598;-74
2023/04/05 10:30:44;;;;;;;27.63;6.80;;;;;;;9.51;60.70;99187.56;5071436;28;20188;-74
2023/04/05 10:33:18;;;;;;;3.10;2.90;;;;;;;9.67;60.76;99194.34;5064373;28;20180;-76
2023/04/05 10:36:03;;;;;;;7.23;3.70;;;;;;;9.76;61.18;99193.19;5057203;28;20633;-69
2023/04/05 10:38:36;;;;;;;3.30;2.50;;;;;;;9.94;59.77;99191.63;5072844;28;20236;-69
2023/04/05 10:41:10;;;;;;;3.50;2.83;;;;;;;9.71;60.34;99196.44;5052340;28;20634;-75
2023/04/05 10:43:39;;;;;;;4.80;3.10;;;;;;;9.42;60.37;99177.31;5062239;28;20199;-74
2023/04/05 10:46:10;;;;;;;4.63;4.07;;;;;;;9.28;62.31;99163.16;5071696;28;20347;-74
2023/04/05 10:48:43;;;;;;;6.30;3.93;;;;;;;9.68;61.49;99202.13;5072451;28;20649;-73
2023/04/05 10:51:12;;;;;;;5.93;3.53;;;;;;;9.59;61.25;99202.47;5071503;28;20180;-70
2023/04/05 10:53:40;;;;;;;3.60;3.30;;;;;;;9.51;62.31;99194.69;5061411;28;20615;-72
2023/04/05 10:56:08;;;;;;;4.13;3.70;;;;;;;9.36;61.11;99200.09;5072534;28;20197;-71
2023/04/05 10:58:36;;;;;;;3.43;3.23;;;;;;;9.34;61.24;99190.72;5072549;28;20257;-72
2023/04/05 11:01:04;;;;;;;4.00;3.10;;;;;;;9.29;61.13;99196.63;5072139;28;20220;-72
2023/04/05 11:03:48;;;;;;;3.50;3.30;;;;;;;9.34;61.51;99194.19;5063030;28;20554;-72
2023/04/05 11:06:24;;;;;;;4.00;3.60;;;;;;;9.28;62.31;99180.91;5052072;28;20239;-73
2023/04/05 11:08:54;;;;;;;3.50;3.20;;;;;;;9.66;61.43;99192.72;5062594;28;20571;-73
2023/04/05 11:11:25;;;;;;;5.77;3.93;;;;;;;9.75;60.54;99202.13;5071588;28;20286;-74
2023/04/05 11:13:53;;;;;;;3.07;2.87;;;;;;;9.79;60.17;99203.38;5069398;28;20184;-74
2023/04/05 11:16:21;;;;;;;3.20;3.00;;;;;;;9.91;59.78;99207.09;5071893;28;20250;-74
2023/04/05 11:18:50;;;;;;;9.73;3.67;;;;;;;9.77;60.34;99200.13;5071878;28;20200;-74
2023/04/05 11:21:26;;;;;;;4.50;3.50;;;;;;;9.84;60.10;99203.59;5071159;28;20940;-75
2023/04/05 11:24:14;;;;;;;7.17;3.40;;;;;;;9.56;60.41;99197.59;5070269;28;20222;-72
2023/04/05 11:26:57;;;;;;;3.43;3.20;;;;;;;9.62;60.34;99196.78;5067883;28;20230;-73
2023/04/05 11:29:50;;;;;;;3.60;3.40;;;;;;;9.78;61.24;99201.75;5070759;28;20730;-74
2023/04/05 11:32:16;;;;;;;5.43;3.87;;;;;;;9.93;61.94;99202.44;5056699;28;20657;-74
2023/04/05 11:34:57;;;;;;;6.33;3.93;;;;;;;10.10;64.87;99179.84;5068978;28;20414;-75
2023/04/05 11:37:24;;;;;;;3.33;3.03;;;;;;;10.25;64.05;99193.78;5072192;28;20207;-70
2023/04/05 11:40:27;;;;;;;6.87;3.53;;;;;;;10.01;60.42;99208.38;5061231;28;20953;-68
2023/04/05 11:43:02;;;;;;;3.13;2.93;;;;;;;9.81;60.90;99201.38;5061253;28;20270;-68
2023/04/05 11:45:31;;;;;;;3.77;3.30;;;;;;;9.95;60.86;99203.03;5071985;28;20215;-67
2023/04/05 11:47:59;;;;;;;5.47;4.13;;;;;;;9.90;61.37;99201.00;5059159;28;20234;-67
2023/04/05 11:50:28;;;;;;;4.27;3.97;;;;;;;9.98;61.86;99194.69;5070788;28;20196;-69
2023/04/05 11:53:14;;;;;;;4.50;4.10;;;;;;;10.20;60.89;99202.34;5055847;28;20245;-70